Time;durP1;ratioP1;P1;durP2;ratioP2;P2;SDS_P1;SDS_P2;PMS_P1;PMS_P2;Temp;Humidity;BMP_temperature;BMP_pressure;BME280_temperature;BME280_humidity;BME280_pressure;Samples;Min_cycle;Max_cycle;Signal;HPM_P1;HPM_P2
2023/05/28 00:01:08;;;;;;;7.07;4.57;;;14.40;65.40;;;;;;5000264;28;20045;-62
2023/05/28 00:03:35;;;;;;;9.15;4.28;;;14.40;65.70;;;;;;5000863;28;20030;-63
2023/05/28 00:06:01;;;;;;;7.07;4.28;;;14.30;65.80;;;;;;4999492;28;20124;-63
2023/05/28 00:08:27;;;;;;;6.13;4.53;;;14.30;66.00;;;;;;4997265;28;20446;-63
2023/05/28 00:10:59;;;;;;;6.32;4.47;;;14.20;66.00;;;;;;4999049;28;20065;-61
2023/05/28 00:13:28;;;;;;;7.97;4.43;;;14.20;66.00;;;;;;5000446;28;20414;-62
2023/05/28 00:15:54;;;;;;;5.55;4.00;;;14.20;66.00;;;;;;4983387;28;20030;-62
2023/05/28 00:18:20;;;;;;;5.60;4.00;;;14.10;66.00;;;;;;4983664;28;20033;-62
2023/05/28 00:20:48;;;;;;;6.95;4.68;;;14.10;66.20;;;;;;4998718;28;20570;-63
2023/05/28 00:23:13;;;;;;;7.88;4.60;;;14.00;66.40;;;;;;4999794;28;20112;-62
2023/05/28 00:25:39;;;;;;;7.03;4.68;;;13.90;66.40;;;;;;4998635;28;20655;-62
2023/05/28 00:28:04;;;;;;;7.18;4.72;;;13.90;66.70;;;;;;4999380;28;20180;-62
2023/05/28 00:30:30;;;;;;;7.55;4.45;;;13.80;66.90;;;;;;4999781;28;20564;-62
2023/05/28 00:32:56;;;;;;;9.48;4.75;;;13.80;67.10;;;;;;4999843;28;20405;-62
2023/05/28 00:35:21;;;;;;;8.02;4.68;;;13.80;67.30;;;;;;5002899;28;20111;-63
2023/05/28 00:37:47;;;;;;;7.75;4.20;;;13.70;67.40;;;;;;4998821;28;20498;-63
2023/05/28 00:40:15;;;;;;;5.45;4.43;;;13.70;67.60;;;;;;4998105;28;20044;-63
2023/05/28 00:42:41;;;;;;;7.00;4.70;;;13.60;67.60;;;;;;4997993;28;20402;-62
2023/05/28 00:45:07;;;;;;;6.70;4.15;;;13.60;67.80;;;;;;5000487;28;20026;-63
2023/05/28 00:47:33;;;;;;;7.43;4.63;;;13.50;67.80;;;;;;4998838;28;20448;-63
2023/05/28 00:50:00;;;;;;;7.63;4.70;;;13.50;67.90;;;;;;4999098;28;20562;-63
2023/05/28 00:52:27;;;;;;;6.60;4.20;;;13.50;68.00;;;;;;4999713;28;20125;-63
2023/05/28 00:54:55;;;;;;;7.13;4.35;;;13.60;68.00;;;;;;5000715;28;20041;-62
2023/05/28 00:57:23;;;;;;;7.65;4.43;;;13.50;68.00;;;;;;5001680;28;20033;-62
2023/05/28 00:59:50;;;;;;;7.65;4.15;;;13.50;68.00;;;;;;4997044;28;20044;-62
2023/05/28 01:02:16;;;;;;;7.93;4.78;;;13.40;68.00;;;;;;4999467;28;20026;-63
2023/05/28 01:04:41;;;;;;;6.65;4.43;;;13.30;68.20;;;;;;4999219;28;20656;-62
2023/05/28 01:07:07;;;;;;;6.20;4.25;;;13.40;68.30;;;;;;5000100;28;20041;-63
2023/05/28 01:09:33;;;;;;;6.80;4.05;;;13.30;68.40;;;;;;5000514;28;20117;-63
2023/05/28 01:12:00;;;;;;;8.65;4.93;;;13.20;68.50;;;;;;5002412;28;20049;-62
2023/05/28 01:14:26;;;;;;;7.80;4.55;;;13.20;68.60;;;;;;5003524;28;20049;-63
2023/05/28 01:16:52;;;;;;;6.72;4.60;;;13.20;68.80;;;;;;5003985;28;20064;-63
2023/05/28 01:19:21;;;;;;;6.70;4.38;;;13.20;68.80;;;;;;5002967;28;20066;-63
2023/05/28 01:21:55;;;;;;;6.25;4.25;;;13.10;68.80;;;;;;5002556;28;20041;-63
2023/05/28 01:24:21;;;;;;;7.13;4.38;;;13.10;69.30;;;;;;4999513;28;20298;-62
2023/05/28 01:26:47;;;;;;;9.20;4.80;;;13.10;69.80;;;;;;5001839;28;20208;-62
2023/05/28 01:29:16;;;;;;;9.30;4.55;;;13.10;69.00;;;;;;5002066;28;20041;-63
2023/05/28 01:31:43;;;;;;;8.30;4.50;;;13.00;69.30;;;;;;5001558;28;20045;-63
2023/05/28 01:34:10;;;;;;;8.30;4.68;;;13.00;69.00;;;;;;4999168;28;20041;-62
2023/05/28 01:36:40;;;;;;;8.05;4.70;;;13.00;69.30;;;;;;4984277;28;20061;-63
2023/05/28 01:39:08;;;;;;;7.88;4.70;;;12.90;69.30;;;;;;5001164;28;20429;-63
2023/05/28 01:41:35;;;;;;;9.07;4.95;;;12.90;69.40;;;;;;5002399;28;20037;-63
2023/05/28 01:44:01;;;;;;;7.97;4.70;;;12.80;69.50;;;;;;5002234;28;20129;-63
2023/05/28 01:46:27;;;;;;;7.45;4.90;;;12.80;69.80;;;;;;4998252;28;20101;-63
2023/05/28 01:48:53;;;;;;;7.13;4.68;;;12.80;69.90;;;;;;4981830;28;20034;-62
2023/05/28 01:51:23;;;;;;;8.07;4.15;;;12.70;69.80;;;;;;5001601;28;20555;-63
2023/05/28 01:53:48;;;;;;;8.23;4.20;;;12.70;70.00;;;;;;5000604;28;20686;-63
2023/05/28 01:56:14;;;;;;;9.00;4.38;;;12.70;69.90;;;;;;5002979;28;20153;-62
2023/05/28 01:58:39;;;;;;;6.32;4.10;;;12.70;69.90;;;;;;5002116;28;20040;-62
2023/05/28 02:01:14;;;;;;;8.32;4.78;;;12.60;69.90;;;;;;5001458;28;20080;-63
2023/05/28 02:03:40;;;;;;;8.77;4.63;;;12.60;70.20;;;;;;5001672;28;20030;-63
2023/05/28 02:06:06;;;;;;;7.57;4.40;;;12.60;69.90;;;;;;5001100;28;20061;-63
2023/05/28 02:08:31;;;;;;;8.63;4.60;;;12.60;70.00;;;;;;5000812;28;20112;-62
2023/05/28 02:10:57;;;;;;;7.80;4.53;;;12.60;70.00;;;;;;5002243;28;20085;-62
2023/05/28 02:13:22;;;;;;;6.95;4.97;;;12.50;70.00;;;;;;4996295;28;20112;-62
2023/05/28 02:15:48;;;;;;;7.25;4.63;;;12.50;70.00;;;;;;4997865;28;20092;-62
2023/05/28 02:18:14;;;;;;;9.60;4.82;;;12.40;70.00;;;;;;4981291;28;20046;-63
2023/05/28 02:20:41;;;;;;;7.10;4.35;;;12.40;70.20;;;;;;4997195;28;20535;-62
2023/05/28 02:23:07;;;;;;;10.63;4.57;;;12.40;70.40;;;;;;5000498;28;20077;-63
2023/05/28 02:25:33;;;;;;;10.15;4.78;;;12.40;70.50;;;;;;4998470;28;20421;-62
2023/05/28 02:27:58;;;;;;;9.13;4.80;;;12.40;70.40;;;;;;4998502;28;20046;-63
2023/05/28 02:30:24;;;;;;;8.88;4.95;;;12.40;70.40;;;;;;4998575;28;20437;-63
2023/05/28 02:32:50;;;;;;;9.30;5.30;;;12.30;70.50;;;;;;4996153;28;20417;-63
2023/05/28 02:35:16;;;;;;;10.77;4.80;;;12.30;70.60;;;;;;4998627;28;20037;-63
2023/05/28 02:37:42;;;;;;;8.98;4.75;;;12.30;70.70;;;;;;5001836;28;20042;-62
2023/05/28 02:40:09;;;;;;;10.98;5.00;;;12.20;70.90;;;;;;5002951;28;20087;-63
2023/05/28 02:42:35;;;;;;;8.90;5.38;;;12.20;70.80;;;;;;5000549;28;20045;-62
2023/05/28 02:45:01;;;;;;;6.35;4.68;;;12.20;70.80;;;;;;5003223;28;20026;-63
2023/05/28 02:47:26;;;;;;;7.43;5.03;;;12.20;70.80;;;;;;5001373;28;22062;-63
2023/05/28 02:49:52;;;;;;;6.85;4.50;;;12.20;70.80;;;;;;4999919;28;20026;-63
2023/05/28 02:52:17;;;;;;;6.63;4.70;;;12.20;70.90;;;;;;5001716;28;20037;-63
2023/05/28 02:54:43;;;;;;;8.50;5.05;;;12.20;70.70;;;;;;5001454;28;20045;-63
2023/05/28 02:57:08;;;;;;;9.00;4.70;;;12.20;70.80;;;;;;4999615;28;20042;-62
2023/05/28 02:59:34;;;;;;;8.07;4.85;;;12.20;70.80;;;;;;5001081;28;22014;-63
2023/05/28 03:02:00;;;;;;;9.43;4.88;;;12.20;70.70;;;;;;5001238;28;20038;-63
2023/05/28 03:04:25;;;;;;;7.03;4.45;;;12.20;70.70;;;;;;5000703;28;20046;-62
2023/05/28 03:06:51;;;;;;;6.00;4.68;;;12.20;70.70;;;;;;4990260;28;20040;-62
2023/05/28 03:09:17;;;;;;;9.20;5.10;;;12.20;70.60;;;;;;5001590;28;20061;-63
2023/05/28 03:11:42;;;;;;;8.93;4.57;;;12.20;70.70;;;;;;4990750;28;20030;-63
2023/05/28 03:14:08;;;;;;;7.30;4.82;;;12.10;70.70;;;;;;5007843;28;20092;-62
2023/05/28 03:16:36;;;;;;;8.18;4.63;;;12.10;70.70;;;;;;5007366;28;20490;-63
2023/05/28 03:19:02;;;;;;;7.68;4.80;;;12.10;70.90;;;;;;5005674;28;20074;-62
2023/05/28 03:21:28;;;;;;;7.60;4.22;;;12.00;70.90;;;;;;5002428;28;20029;-63
2023/05/28 03:23:53;;;;;;;8.23;4.60;;;12.00;71.00;;;;;;5001681;28;20038;-63
2023/05/28 03:26:19;;;;;;;8.60;4.72;;;11.90;71.10;;;;;;5006464;28;20037;-62
2023/05/28 03:28:45;;;;;;;8.20;4.93;;;11.90;71.30;;;;;;5001942;28;20026;-63
2023/05/28 03:31:12;;;;;;;6.38;4.60;;;11.80;71.40;;;;;;5001622;28;20041;-63
2023/05/28 03:33:38;;;;;;;8.77;4.60;;;11.90;71.60;;;;;;5001825;28;20034;-62
2023/05/28 03:36:05;;;;;;;8.88;4.50;;;11.80;71.40;;;;;;5003217;28;20037;-63
2023/05/28 03:38:31;;;;;;;7.90;4.50;;;11.80;71.60;;;;;;5003399;28;20370;-63
2023/05/28 03:40:57;;;;;;;8.65;4.80;;;11.80;71.70;;;;;;5003232;28;20409;-62
2023/05/28 03:43:22;;;;;;;6.82;4.90;;;11.70;71.60;;;;;;5003684;28;20034;-63
2023/05/28 03:45:48;;;;;;;8.05;4.53;;;11.70;71.70;;;;;;5003787;28;20103;-62
2023/05/28 03:48:14;;;;;;;8.27;4.72;;;11.70;71.80;;;;;;5001557;28;20307;-61
2023/05/28 03:50:40;;;;;;;7.55;4.20;;;11.70;71.80;;;;;;5000686;28;20041;-63
2023/05/28 03:53:06;;;;;;;7.45;4.50;;;11.70;71.80;;;;;;5002091;28;20068;-63
2023/05/28 03:55:33;;;;;;;10.20;4.38;;;11.80;71.90;;;;;;5004676;28;20034;-62
2023/05/28 03:57:58;;;;;;;10.18;4.80;;;11.80;72.00;;;;;;5003815;28;20056;-63
2023/05/28 04:00:24;;;;;;;9.57;4.50;;;11.80;71.90;;;;;;5000462;28;20141;-62
2023/05/28 04:02:51;;;;;;;9.77;4.55;;;11.80;72.00;;;;;;4983383;28;20136;-63
2023/05/28 04:05:16;;;;;;;8.23;4.47;;;11.90;71.80;;;;;;4998336;28;20113;-62
2023/05/28 04:07:42;;;;;;;6.88;4.65;;;11.90;71.50;;;;;;5003150;28;20068;-61
2023/05/28 04:10:08;;;;;;;8.90;3.92;;;11.90;71.60;;;;;;5000937;28;20056;-63
2023/05/28 04:12:33;;;;;;;7.97;4.45;;;12.00;71.60;;;;;;4999542;28;20061;-62
2023/05/28 04:15:00;;;;;;;8.40;4.18;;;12.00;71.50;;;;;;4999525;28;20035;-63
2023/05/28 04:17:27;;;;;;;7.75;4.00;;;12.10;71.50;;;;;;5000316;28;20034;-62
2023/05/28 04:19:55;;;;;;;9.32;4.68;;;12.10;71.40;;;;;;5000895;28;20119;-63
2023/05/28 04:22:24;;;;;;;9.50;4.38;;;12.20;71.70;;;;;;5000235;28;20401;-63
2023/05/28 04:24:51;;;;;;;5.57;3.90;;;12.20;71.40;;;;;;5002357;28;20812;-62
2023/05/28 04:27:17;;;;;;;7.50;4.50;;;12.20;71.30;;;;;;5002344;28;20416;-63
2023/05/28 04:29:43;;;;;;;8.02;4.00;;;12.30;71.40;;;;;;5002019;28;20034;-63
2023/05/28 04:32:09;;;;;;;7.93;3.95;;;12.30;71.10;;;;;;5000489;28;20038;-63
2023/05/28 04:34:37;;;;;;;7.85;3.92;;;12.40;70.70;;;;;;5000655;28;20034;-62
2023/05/28 04:37:04;;;;;;;8.00;4.53;;;12.40;70.60;;;;;;5000749;28;20661;-62
2023/05/28 04:39:29;;;;;;;7.40;4.25;;;12.50;70.80;;;;;;5001513;28;20041;-63
2023/05/28 04:41:55;;;;;;;9.02;4.40;;;12.50;70.90;;;;;;5002943;28;20038;-63
2023/05/28 04:44:25;;;;;;;7.63;4.30;;;12.60;71.00;;;;;;5003117;28;20046;-62
2023/05/28 04:46:51;;;;;;;7.20;4.15;;;12.60;71.00;;;;;;4998746;28;20026;-63
2023/05/28 04:49:17;;;;;;;8.43;3.95;;;12.60;71.10;;;;;;4996201;28;20049;-62
2023/05/28 04:51:43;;;;;;;7.28;4.00;;;12.70;71.20;;;;;;5001169;28;20037;-63
2023/05/28 04:54:09;;;;;;;8.32;4.10;;;12.70;71.10;;;;;;5000182;28;20524;-63
2023/05/28 04:56:37;;;;;;;9.05;4.15;;;12.80;71.30;;;;;;5002432;28;20037;-63
2023/05/28 04:59:04;;;;;;;8.20;3.95;;;12.80;71.60;;;;;;5001961;28;20068;-63
2023/05/28 05:01:33;;;;;;;7.57;4.15;;;12.90;71.50;;;;;;5000717;28;20034;-63
2023/05/28 05:04:00;;;;;;;9.50;4.18;;;12.90;71.20;;;;;;4999096;28;20081;-62
2023/05/28 05:06:25;;;;;;;10.35;4.28;;;13.00;70.90;;;;;;4999224;28;20049;-62
2023/05/28 05:08:51;;;;;;;5.85;3.60;;;13.00;70.70;;;;;;5001772;28;20042;-62
2023/05/28 05:11:16;;;;;;;6.75;3.78;;;13.00;70.40;;;;;;5003943;28;20049;-63
2023/05/28 05:13:42;;;;;;;8.80;3.83;;;13.10;70.40;;;;;;5006376;28;20343;-63
2023/05/28 05:16:08;;;;;;;6.53;4.13;;;13.20;70.40;;;;;;5005994;28;20069;-63
2023/05/28 05:18:33;;;;;;;8.35;4.15;;;13.20;70.20;;;;;;5005037;28;20112;-63
2023/05/28 05:21:00;;;;;;;10.00;4.40;;;13.30;70.10;;;;;;5001592;28;20120;-63
2023/05/28 05:23:25;;;;;;;8.93;4.05;;;13.40;70.00;;;;;;4998920;28;20045;-63
2023/05/28 05:25:51;;;;;;;8.45;4.03;;;13.50;69.90;;;;;;5000267;28;20048;-62
2023/05/28 05:28:17;;;;;;;9.50;4.50;;;13.60;69.90;;;;;;4982526;28;20498;-62
2023/05/28 05:30:42;;;;;;;8.95;4.15;;;13.60;69.40;;;;;;4999565;28;20038;-62
2023/05/28 05:33:08;;;;;;;8.60;4.00;;;13.70;69.20;;;;;;4998045;28;20038;-61
2023/05/28 05:35:34;;;;;;;9.77;4.15;;;13.80;69.00;;;;;;4997728;28;20049;-63
2023/05/28 05:37:59;;;;;;;11.77;4.13;;;13.90;68.60;;;;;;4999013;28;20448;-62
2023/05/28 05:40:25;;;;;;;9.88;4.10;;;13.90;68.60;;;;;;4998300;28;20124;-63
2023/05/28 05:42:51;;;;;;;8.85;3.97;;;13.90;68.40;;;;;;4998309;28;20489;-63
2023/05/28 05:45:16;;;;;;;6.18;3.92;;;14.00;68.30;;;;;;4997668;28;20346;-62
2023/05/28 05:47:42;;;;;;;6.95;4.22;;;14.10;68.10;;;;;;4997779;28;20073;-62
2023/05/28 05:50:10;;;;;;;9.65;4.18;;;14.10;67.80;;;;;;4998246;28;20574;-62
2023/05/28 05:52:36;;;;;;;9.43;4.10;;;14.20;67.80;;;;;;5000115;28;20429;-63
2023/05/28 05:55:01;;;;;;;12.43;4.63;;;14.30;67.80;;;;;;4998103;28;20515;-62
2023/05/28 05:57:27;;;;;;;7.72;4.28;;;14.40;67.50;;;;;;5000491;28;20057;-63
2023/05/28 05:59:54;;;;;;;8.63;4.18;;;14.40;67.40;;;;;;5000388;28;20053;-63
2023/05/28 06:02:19;;;;;;;8.02;3.85;;;14.50;67.30;;;;;;5003922;28;20042;-63
2023/05/28 06:04:45;;;;;;;8.85;4.28;;;14.60;67.50;;;;;;5000342;28;20026;-62
2023/05/28 06:07:11;;;;;;;7.60;4.22;;;14.70;67.30;;;;;;4999105;28;20045;-62
2023/05/28 06:09:36;;;;;;;7.85;4.30;;;14.80;67.10;;;;;;4998247;28;20408;-63
2023/05/28 06:12:02;;;;;;;6.88;4.07;;;14.80;67.00;;;;;;5005716;28;20080;-63
2023/05/28 06:14:28;;;;;;;9.85;4.70;;;14.80;67.10;;;;;;5003877;28;20042;-63
2023/05/28 06:16:54;;;;;;;6.82;4.20;;;14.90;66.80;;;;;;4999072;28;20034;-62
2023/05/28 06:19:19;;;;;;;7.90;4.15;;;15.00;66.90;;;;;;5000886;28;20030;-63
2023/05/28 06:21:45;;;;;;;8.40;4.95;;;15.10;66.90;;;;;;5000461;28;20123;-63
2023/05/28 06:24:11;;;;;;;8.98;4.15;;;15.10;66.80;;;;;;5003180;28;20124;-63
2023/05/28 06:26:36;;;;;;;5.97;3.85;;;15.20;66.80;;;;;;5000291;28;20412;-63
2023/05/28 06:29:02;;;;;;;9.13;4.35;;;15.30;66.70;;;;;;5002829;28;20030;-63
2023/05/28 06:31:28;;;;;;;8.38;4.30;;;15.40;66.70;;;;;;5002402;28;20144;-63
2023/05/28 06:33:54;;;;;;;7.95;3.75;;;15.50;66.30;;;;;;5000896;28;20057;-62
2023/05/28 06:36:19;;;;;;;10.02;4.22;;;15.60;65.90;;;;;;5001247;28;20037;-63
2023/05/28 06:38:45;;;;;;;9.15;4.18;;;15.70;65.60;;;;;;4985218;28;20761;-62
2023/05/28 06:41:10;;;;;;;9.55;4.38;;;15.80;65.20;;;;;;5000918;28;20132;-63
2023/05/28 06:43:37;;;;;;;7.78;4.45;;;15.90;65.10;;;;;;5001414;28;20501;-63
2023/05/28 06:46:03;;;;;;;8.70;4.40;;;16.00;64.90;;;;;;5003882;28;20034;-62
2023/05/28 06:48:28;;;;;;;8.32;4.10;;;16.10;64.70;;;;;;5000028;28;20042;-63
2023/05/28 06:50:54;;;;;;;9.38;4.03;;;16.10;64.50;;;;;;5001833;28;20041;-63
2023/05/28 06:53:20;;;;;;;8.18;4.18;;;16.20;64.50;;;;;;5000714;28;20544;-62
2023/05/28 06:55:45;;;;;;;11.73;4.50;;;16.30;64.10;;;;;;5001116;28;20484;-63
2023/05/28 06:58:11;;;;;;;8.77;4.43;;;16.40;64.10;;;;;;5000799;28;20080;-62
2023/05/28 07:00:36;;;;;;;9.70;4.63;;;16.50;64.00;;;;;;5002335;28;22130;-62
2023/05/28 07:03:02;;;;;;;11.32;4.30;;;16.60;63.80;;;;;;4997077;28;20516;-63
2023/05/28 07:05:28;;;;;;;6.75;3.88;;;16.60;63.40;;;;;;5003607;28;20513;-63
2023/05/28 07:07:55;;;;;;;11.55;4.82;;;16.60;63.60;;;;;;5000542;28;20029;-62
2023/05/28 07:10:20;;;;;;;9.70;4.10;;;16.70;63.50;;;;;;5001824;28;20624;-63
2023/05/28 07:12:46;;;;;;;8.40;4.35;;;16.70;64.40;;;;;;5005605;28;20037;-62
2023/05/28 07:15:12;;;;;;;9.30;4.38;;;16.80;63.60;;;;;;4996763;28;20425;-64
2023/05/28 07:17:37;;;;;;;7.63;3.97;;;16.90;63.20;;;;;;5008148;28;20041;-63
2023/05/28 07:20:05;;;;;;;7.70;3.97;;;17.00;63.20;;;;;;5007177;28;20037;-63
2023/05/28 07:22:31;;;;;;;8.93;4.10;;;17.00;62.60;;;;;;5005766;28;20034;-63
2023/05/28 07:24:57;;;;;;;7.63;3.72;;;17.10;62.70;;;;;;4986973;28;20120;-63
2023/05/28 07:27:22;;;;;;;6.55;3.55;;;17.20;62.80;;;;;;5006274;28;20022;-64
2023/05/28 07:29:48;;;;;;;7.78;4.28;;;17.20;63.00;;;;;;5006333;28;20117;-63
2023/05/28 07:32:13;;;;;;;8.90;3.88;;;17.30;63.10;;;;;;5007524;28;20034;-63
2023/05/28 07:34:40;;;;;;;8.07;4.53;;;17.40;63.10;;;;;;5006380;28;20164;-63
2023/05/28 07:37:06;;;;;;;7.78;4.30;;;17.50;62.90;;;;;;5005613;28;20053;-63
2023/05/28 07:39:31;;;;;;;8.95;4.15;;;17.60;62.90;;;;;;5006949;28;20042;-63
2023/05/28 07:41:57;;;;;;;8.57;4.00;;;17.70;62.60;;;;;;5007348;28;20026;-63
2023/05/28 07:44:22;;;;;;;6.88;4.00;;;17.80;62.60;;;;;;5006434;28;20072;-63
2023/05/28 07:46:48;;;;;;;8.30;4.53;;;18.00;62.60;;;;;;5005833;28;20045;-63
2023/05/28 07:49:16;;;;;;;8.55;4.45;;;18.10;62.30;;;;;;5003737;28;20087;-63
2023/05/28 07:51:42;;;;;;;6.30;4.05;;;18.20;61.70;;;;;;5005745;28;20501;-63
2023/05/28 07:54:07;;;;;;;7.47;4.22;;;18.20;61.50;;;;;;5006053;28;20072;-63
2023/05/28 07:56:33;;;;;;;7.80;3.90;;;18.40;61.30;;;;;;5006840;28;20036;-64
2023/05/28 07:58:58;;;;;;;6.10;3.80;;;18.50;61.60;;;;;;5004308;28;20029;-63
2023/05/28 08:01:24;;;;;;;8.52;4.22;;;18.60;61.20;;;;;;5004778;28;20493;-63
2023/05/28 08:03:53;;;;;;;10.52;4.10;;;18.60;60.70;;;;;;5005851;28;20038;-63
2023/05/28 08:06:19;;;;;;;7.90;4.50;;;18.70;60.70;;;;;;5006442;28;20048;-63
2023/05/28 08:08:45;;;;;;;7.05;4.07;;;18.80;60.50;;;;;;5005273;28;20037;-62
2023/05/28 08:11:13;;;;;;;8.02;3.85;;;19.00;60.80;;;;;;5004969;28;20125;-63
2023/05/28 08:13:39;;;;;;;7.57;3.97;;;19.00;60.40;;;;;;5005376;28;20042;-63
2023/05/28 08:16:05;;;;;;;8.43;3.78;;;19.20;60.10;;;;;;5005067;28;20042;-63
2023/05/28 08:18:30;;;;;;;8.88;4.50;;;19.30;60.00;;;;;;5005922;28;20044;-64
2023/05/28 08:20:56;;;;;;;6.40;3.70;;;19.40;59.40;;;;;;5006202;28;20066;-62
2023/05/28 08:23:22;;;;;;;8.43;3.83;;;19.50;59.20;;;;;;5004912;28;20125;-63
2023/05/28 08:25:47;;;;;;;8.07;3.92;;;19.60;59.30;;;;;;5006421;28;20033;-63
2023/05/28 08:28:14;;;;;;;7.80;3.80;;;19.70;59.30;;;;;;5005505;28;20107;-63
2023/05/28 08:30:39;;;;;;;5.75;3.33;;;19.90;58.80;;;;;;5005007;28;20038;-63
2023/05/28 08:33:05;;;;;;;9.60;4.05;;;20.00;58.80;;;;;;5006108;28;20041;-63
2023/05/28 08:35:30;;;;;;;10.70;4.22;;;20.10;58.30;;;;;;5005218;28;20026;-63
2023/05/28 08:37:56;;;;;;;8.90;3.90;;;20.20;57.60;;;;;;5003126;28;20062;-63
2023/05/28 08:40:22;;;;;;;8.13;3.80;;;20.30;57.90;;;;;;4987634;28;20125;-63
2023/05/28 08:42:49;;;;;;;8.75;4.05;;;20.40;58.20;;;;;;5006119;28;20038;-63
2023/05/28 08:45:15;;;;;;;7.05;3.83;;;20.50;57.50;;;;;;5004067;28;20085;-63
2023/05/28 08:47:41;;;;;;;7.65;3.40;;;20.60;57.20;;;;;;5006051;28;20454;-63
2023/05/28 08:50:07;;;;;;;10.68;3.92;;;20.80;57.40;;;;;;5004094;28;20038;-63
2023/05/28 08:52:34;;;;;;;8.00;3.55;;;20.90;57.50;;;;;;5003755;28;20133;-63
2023/05/28 08:55:00;;;;;;;9.05;3.70;;;21.00;56.70;;;;;;5004791;28;20523;-63
2023/05/28 08:57:29;;;;;;;6.30;3.38;;;21.10;56.20;;;;;;5004843;28;20030;-63
2023/05/28 08:59:55;;;;;;;7.45;3.40;;;21.30;56.00;;;;;;5006056;28;20092;-63
2023/05/28 09:02:25;;;;;;;5.72;2.92;;;21.40;55.70;;;;;;5006795;28;20033;-64
2023/05/28 09:04:51;;;;;;;7.00;3.40;;;21.50;55.00;;;;;;5004675;28;20532;-64
2023/05/28 09:07:16;;;;;;;7.10;3.25;;;21.60;54.60;;;;;;5004444;28;20065;-63
2023/05/28 09:09:43;;;;;;;5.80;3.45;;;21.70;53.70;;;;;;5004827;28;20509;-63
2023/05/28 09:12:12;;;;;;;6.15;3.28;;;21.80;52.70;;;;;;5004510;28;20053;-64
2023/05/28 09:14:40;;;;;;;7.38;2.80;;;21.90;52.40;;;;;;4986687;28;20072;-63
2023/05/28 09:17:09;;;;;;;7.07;3.30;;;22.00;52.60;;;;;;5002466;28;20038;-63
2023/05/28 09:19:35;;;;;;;6.00;3.05;;;22.10;52.80;;;;;;5003102;28;20061;-64
2023/05/28 09:22:03;;;;;;;4.43;2.70;;;22.20;52.50;;;;;;5001049;28;20061;-64
2023/05/28 09:24:30;;;;;;;5.20;2.72;;;22.30;52.30;;;;;;5005198;28;20034;-64
2023/05/28 09:27:00;;;;;;;5.55;2.97;;;22.40;51.60;;;;;;5005175;28;20030;-64
2023/05/28 09:29:26;;;;;;;8.50;3.10;;;22.60;51.50;;;;;;5005655;28;20106;-63
2023/05/28 09:32:00;;;;;;;7.85;3.22;;;22.70;51.30;;;;;;5005502;28;20029;-64
2023/05/28 09:34:30;;;;;;;5.10;2.90;;;22.80;50.10;;;;;;5001595;28;20697;-64
2023/05/28 09:37:03;;;;;;;4.05;2.90;;;22.90;50.90;;;;;;5001991;28;20030;-63
2023/05/28 09:39:29;;;;;;;5.60;3.30;;;23.00;50.30;;;;;;4984531;28;21618;-64
2023/05/28 09:42:09;;;;;;;6.53;3.10;;;23.10;50.20;;;;;;4996993;28;20037;-63
2023/05/28 09:44:36;;;;;;;5.55;2.53;;;23.10;48.90;;;;;;4996720;28;20034;-64
2023/05/28 09:47:17;;;;;;;5.43;2.80;;;23.20;49.00;;;;;;5002293;28;20038;-64
2023/05/28 09:49:44;;;;;;;7.03;2.80;;;23.30;49.80;;;;;;5002737;28;20631;-63
2023/05/28 09:52:16;;;;;;;4.53;2.70;;;23.40;49.00;;;;;;4996049;28;20042;-63
2023/05/28 09:54:45;;;;;;;7.45;3.35;;;23.40;47.60;;;;;;5005333;28;20030;-64
2023/05/28 09:57:12;;;;;;;7.57;3.05;;;23.50;48.40;;;;;;5001644;28;20108;-64
2023/05/28 09:59:39;;;;;;;5.97;2.95;;;23.60;48.50;;;;;;5000631;28;20505;-64
2023/05/28 10:02:38;;;;;;;6.78;3.13;;;23.60;48.30;;;;;;5003041;28;20038;-63
2023/05/28 10:05:07;;;;;;;12.45;3.25;;;23.70;47.50;;;;;;5003915;28;20401;-64
2023/05/28 10:07:34;;;;;;;6.38;3.08;;;23.80;48.10;;;;;;5004493;28;20061;-64
2023/05/28 10:10:01;;;;;;;5.03;2.75;;;23.80;47.90;;;;;;5002808;28;20740;-63
2023/05/28 10:12:30;;;;;;;6.07;3.05;;;23.90;47.80;;;;;;5002209;28;20497;-64
2023/05/28 10:14:57;;;;;;;3.95;2.65;;;23.90;46.30;;;;;;4997211;28;20041;-63
2023/05/28 10:17:23;;;;;;;6.22;2.88;;;24.00;46.60;;;;;;4994984;28;20053;-64
2023/05/28 10:19:49;;;;;;;6.22;2.80;;;24.00;46.70;;;;;;4994487;28;20041;-64
2023/05/28 10:22:16;;;;;;;4.18;3.00;;;24.10;46.20;;;;;;4998348;28;20064;-64
2023/05/28 10:24:43;;;;;;;5.68;2.85;;;24.10;45.10;;;;;;5001452;28;20030;-64
2023/05/28 10:27:13;;;;;;;8.20;3.08;;;24.10;45.90;;;;;;4999197;28;20030;-64
2023/05/28 10:29:41;;;;;;;7.00;3.40;;;24.20;45.50;;;;;;5004159;28;20514;-64
2023/05/28 10:32:07;;;;;;;4.72;2.85;;;24.20;45.00;;;;;;5004146;28;20041;-64
2023/05/28 10:34:35;;;;;;;4.45;2.67;;;24.20;45.20;;;;;;4996716;28;20117;-64
2023/05/28 10:37:06;;;;;;;5.38;2.63;;;24.20;45.00;;;;;;5004349;28;20068;-64
2023/05/28 10:39:43;;;;;;;4.65;2.80;;;24.30;45.10;;;;;;5002518;28;20050;-63
2023/05/28 10:42:14;;;;;;;5.72;2.88;;;24.30;43.50;;;;;;4989411;28;20034;-64
2023/05/28 10:44:51;;;;;;;5.50;3.00;;;24.40;43.80;;;;;;5000261;28;20069;-64
2023/05/28 10:47:18;;;;;;;5.53;2.45;;;24.40;43.10;;;;;;4996243;28;20029;-62
2023/05/28 10:50:08;;;;;;;6.95;2.90;;;24.40;44.20;;;;;;4995880;28;20045;-64
2023/05/28 10:52:37;;;;;;;5.53;2.72;;;24.50;43.80;;;;;;5006574;28;20139;-62
2023/05/28 10:55:06;;;;;;;4.72;2.50;;;24.50;43.70;;;;;;5004416;28;20053;-61
2023/05/28 10:57:45;;;;;;;4.93;2.70;;;24.60;44.00;;;;;;5006987;28;20041;-64
2023/05/28 11:00:24;;;;;;;6.10;2.85;;;24.70;42.20;;;;;;5006550;28;20505;-61
2023/05/28 11:02:54;;;;;;;5.03;2.92;;;24.70;42.90;;;;;;5009172;28;20040;-62
2023/05/28 11:05:25;;;;;;;5.55;2.97;;;24.70;42.20;;;;;;5007838;28;20133;-62
2023/05/28 11:07:52;;;;;;;6.22;2.67;;;24.70;42.40;;;;;;5009124;28;20238;-62
2023/05/28 11:10:18;;;;;;;5.00;2.67;;;24.70;43.20;;;;;;5008078;28;20038;-62
2023/05/28 11:12:47;;;;;;;4.35;2.40;;;24.70;42.70;;;;;;5006960;28;20069;-62
2023/05/28 11:15:13;;;;;;;5.63;2.20;;;24.80;42.00;;;;;;5005954;28;20037;-62
2023/05/28 11:17:41;;;;;;;4.10;2.50;;;24.80;42.00;;;;;;5008385;28;20234;-62
2023/05/28 11:20:24;;;;;;;5.05;2.70;;;24.90;41.10;;;;;;5005404;28;20045;-62
2023/05/28 11:22:50;;;;;;;5.07;2.30;;;24.90;39.90;;;;;;5004979;28;20512;-61
2023/05/28 11:25:16;;;;;;;4.60;2.63;;;24.90;40.20;;;;;;5006520;28;20034;-62
2023/05/28 11:27:42;;;;;;;5.20;2.83;;;24.90;41.10;;;;;;5006813;28;20042;-61
2023/05/28 11:30:12;;;;;;;5.18;2.80;;;24.90;41.10;;;;;;5005488;28;20125;-62
2023/05/28 11:32:38;;;;;;;4.38;2.38;;;25.00;40.90;;;;;;5008863;28;20137;-62
2023/05/28 11:35:04;;;;;;;4.50;2.25;;;25.00;40.60;;;;;;5007499;28;20548;-62
2023/05/28 11:37:32;;;;;;;4.13;2.45;;;25.00;40.30;;;;;;5007360;28;20415;-62
2023/05/28 11:39:59;;;;;;;5.95;2.35;;;25.00;40.70;;;;;;4990250;28;20493;-62
2023/05/28 11:42:27;;;;;;;5.15;2.92;;;25.00;40.90;;;;;;5006343;28;20564;-62
2023/05/28 11:44:52;;;;;;;5.32;2.30;;;25.10;40.70;;;;;;5006367;28;20042;-62
2023/05/28 11:47:19;;;;;;;5.57;3.00;;;25.10;41.60;;;;;;5006556;28;20034;-62
2023/05/28 11:49:46;;;;;;;7.82;3.60;;;25.10;40.90;;;;;;5006940;28;20029;-61
2023/05/28 11:52:19;;;;;;;10.65;2.85;;;25.10;40.50;;;;;;5008235;28;20041;-62
2023/05/28 11:54:47;;;;;;;3.50;2.58;;;25.00;41.30;;;;;;5006116;28;20125;-62
2023/05/28 11:57:22;;;;;;;4.70;2.83;;;25.00;41.70;;;;;;5006633;28;20100;-62
2023/05/28 12:00:00;;;;;;;5.05;2.85;;;25.00;41.10;;;;;;5007425;28;20046;-62
2023/05/28 12:02:26;;;;;;;4.75;2.97;;;24.90;42.10;;;;;;5005552;28;20425;-61
2023/05/28 12:04:56;;;;;;;4.43;2.67;;;24.90;41.00;;;;;;5006543;28;20456;-62
2023/05/28 12:07:22;;;;;;;4.55;3.03;;;24.90;42.10;;;;;;5006176;28;20034;-61
2023/05/28 12:09:48;;;;;;;5.63;2.70;;;24.90;42.30;;;;;;5006234;28;20108;-62
2023/05/28 12:12:14;;;;;;;5.50;3.28;;;24.80;42.60;;;;;;5006029;28;20493;-62
2023/05/28 12:14:39;;;;;;;6.10;3.08;;;24.90;42.10;;;;;;5005772;28;20053;-62
2023/05/28 12:17:08;;;;;;;5.80;3.13;;;24.80;41.90;;;;;;5004016;28;20083;-62
2023/05/28 12:19:37;;;;;;;7.60;2.90;;;24.80;42.20;;;;;;5001600;28;20044;-62
2023/05/28 12:22:12;;;;;;;4.20;2.75;;;24.80;42.10;;;;;;5004838;28;20089;-62
2023/05/28 12:24:37;;;;;;;8.95;3.30;;;24.80;41.70;;;;;;5006426;28;20034;-62
2023/05/28 12:27:03;;;;;;;4.97;2.90;;;24.80;41.60;;;;;;5007078;28;20393;-62
2023/05/28 12:29:29;;;;;;;7.15;3.45;;;24.80;42.20;;;;;;5006636;28;20112;-62
2023/05/28 12:31:58;;;;;;;6.07;3.15;;;24.70;42.10;;;;;;5007650;28;20042;-62
2023/05/28 12:34:24;;;;;;;6.25;3.03;;;24.80;41.70;;;;;;4984192;28;20291;-62
2023/05/28 12:36:50;;;;;;;5.47;3.00;;;24.80;41.50;;;;;;5005732;28;20033;-62
2023/05/28 12:39:16;;;;;;;5.85;3.08;;;24.80;41.90;;;;;;5007707;28;20034;-62
2023/05/28 12:41:42;;;;;;;4.95;2.75;;;24.70;42.00;;;;;;5008250;28;20076;-64
2023/05/28 12:44:07;;;;;;;8.05;3.00;;;24.70;42.30;;;;;;5007157;28;20413;-62